createdAt,value
2022-09-23T00:02:12.795Z,101739.16
2022-09-23T00:04:41.528Z,101740.31
2022-09-23T00:07:11.132Z,101733.38
2022-09-23T00:09:39.321Z,101735.41
2022-09-23T00:12:10.079Z,101731.91
2022-09-23T00:14:39.926Z,101722.19
2022-09-23T00:17:08.191Z,101724.97
2022-09-23T00:19:39.213Z,101728.53
2022-09-23T00:22:07.924Z,101725.03
2022-09-23T00:24:37.529Z,101721.47
2022-09-23T00:27:06.406Z,101714.28
2022-09-23T00:29:36.080Z,101720.38
2022-09-23T00:32:04.740Z,101714.00
2022-09-23T00:34:33.129Z,101712.03
2022-09-23T00:37:01.472Z,101713.78
2022-09-23T00:39:29.867Z,101708.25
2022-09-23T00:41:59.469Z,101708.19
2022-09-23T00:44:48.143Z,101704.44
2022-09-23T00:47:25.165Z,101700.78
2022-09-23T00:50:03.511Z,101689.88
2022-09-23T00:52:33.365Z,101693.34
2022-09-23T00:55:04.762Z,101696.94
2022-09-23T00:57:37.168Z,101695.97
2022-09-23T01:00:08.547Z,101688.78
2022-09-23T01:02:37.716Z,101696.69
2022-09-23T01:05:08.352Z,101695.72
2022-09-23T01:07:36.556Z,101685.81
2022-09-23T01:10:06.588Z,101687.56
2022-09-23T01:13:03.336Z,101684.78
2022-09-23T01:15:42.893Z,101675.81
2022-09-23T01:18:23.385Z,101681.22
2022-09-23T01:21:09.287Z,101677.56
2022-09-23T01:24:13.606Z,101674.88
2022-09-23T01:27:02.064Z,101670.38
2022-09-23T01:30:16.743Z,101663.16
2022-09-23T01:33:10.762Z,101657.69
2022-09-23T01:36:10.054Z,101655.88
2022-09-23T01:38:47.273Z,101660.31
2022-09-23T01:41:49.243Z,101651.28
2022-09-23T01:44:24.300Z,101649.41
2022-09-23T01:46:57.595Z,101648.47
2022-09-23T01:49:36.321Z,101646.56
2022-09-23T01:52:14.716Z,101649.22
2022-09-23T01:54:53.200Z,101643.75
2022-09-23T01:57:31.861Z,101645.50
2022-09-23T02:00:08.972Z,101640.91
2022-09-23T02:02:42.069Z,101635.50
2022-09-23T02:05:19.886Z,101639.00
2022-09-23T02:07:54.352Z,101635.34
2022-09-23T02:10:28.474Z,101632.66
2022-09-23T02:13:05.298Z,101630.88
2022-09-23T02:15:40.250Z,101630.78
2022-09-23T02:18:15.225Z,101628.09
2022-09-23T02:20:45.152Z,101622.78
2022-09-23T02:23:18.717Z,101626.34
2022-09-23T02:25:56.017Z,101613.78
2022-09-23T02:28:33.062Z,101618.31
2022-09-23T02:31:12.002Z,101616.56
2022-09-23T02:33:47.339Z,101611.25
2022-09-23T02:36:27.028Z,101605.94
2022-09-23T02:38:58.697Z,101614.91
2022-09-23T02:41:33.818Z,101613.16
2022-09-23T02:44:08.390Z,101607.75
2022-09-23T02:46:37.932Z,101600.63
2022-09-23T02:49:12.579Z,101606.09
2022-09-23T02:51:42.881Z,101607.88
2022-09-23T02:54:15.664Z,101596.31
2022-09-23T02:56:43.976Z,101594.56
2022-09-23T02:59:13.626Z,101593.69
2022-09-23T03:01:56.401Z,101598.22
2022-09-23T03:04:34.371Z,101597.25
2022-09-23T03:07:11.821Z,101594.50
2022-09-23T03:09:51.094Z,101589.94
2022-09-23T03:12:36.036Z,101588.97
2022-09-23T03:15:22.633Z,101590.66
2022-09-23T03:17:59.794Z,101586.03
2022-09-23T03:20:35.368Z,101575.13
2022-09-23T03:23:09.993Z,101570.53
2022-09-23T03:25:44.708Z,101566.81
2022-09-23T03:28:15.886Z,101566.72
2022-09-23T03:30:44.623Z,101566.56
2022-09-23T03:33:16.675Z,101560.22
2022-09-23T03:36:11.822Z,101557.50
2022-09-23T03:38:46.706Z,101560.97
2022-09-23T03:41:21.162Z,101558.19
2022-09-23T03:43:49.963Z,101540.13
2022-09-23T03:46:19.081Z,101547.25
2022-09-23T03:48:47.614Z,101538.22
2022-09-23T03:51:23.873Z,101539.94
2022-09-23T03:53:53.428Z,101535.44
2022-09-23T03:56:21.657Z,101543.44
2022-09-23T03:58:49.826Z,101539.78
2022-09-23T04:01:18.103Z,101546.00
2022-09-23T04:03:46.403Z,101544.19
2022-09-23T04:06:14.872Z,101532.53
2022-09-23T04:08:43.121Z,101533.41
2022-09-23T04:11:12.706Z,101529.81
2022-09-23T04:13:40.914Z,101528.88
2022-09-23T04:16:09.169Z,101529.75
2022-09-23T04:18:37.532Z,101526.19
2022-09-23T04:21:06.098Z,101527.06
2022-09-23T04:23:34.345Z,101516.19
2022-09-23T04:26:02.539Z,101517.94
2022-09-23T04:28:32.156Z,101513.41
2022-09-23T04:31:00.561Z,101522.38
2022-09-23T04:33:28.916Z,101506.09
2022-09-23T04:35:57.402Z,101510.63
2022-09-23T04:38:25.855Z,101509.66
2022-09-23T04:40:54.223Z,101506.09
2022-09-23T04:43:23.293Z,101507.94
2022-09-23T04:46:01.518Z,101507.94
2022-09-23T04:48:30.432Z,101505.22
2022-09-23T04:51:04.659Z,101501.75
2022-09-23T04:53:33.995Z,101508.88
2022-09-23T04:56:03.315Z,101502.69
2022-09-23T04:58:31.819Z,101502.69
2022-09-23T05:01:11.197Z,101499.13
2022-09-23T05:03:40.846Z,101498.25
2022-09-23T05:06:09.557Z,101493.75
2022-09-23T05:08:37.969Z,101500.00
2022-09-23T05:11:06.988Z,101494.63
2022-09-23T05:13:35.448Z,101497.31
2022-09-23T05:16:08.301Z,101492.88
2022-09-23T05:18:42.681Z,101500.09
2022-09-23T05:21:11.978Z,101488.50
2022-09-23T05:23:41.910Z,101496.66
2022-09-23T05:26:13.546Z,101490.47
2022-09-23T05:28:42.003Z,101489.69
2022-09-23T05:31:19.642Z,101484.28
2022-09-23T05:33:51.819Z,101491.59
2022-09-23T05:36:21.256Z,101488.13
2022-09-23T05:38:50.830Z,101484.53
2022-09-23T05:41:22.955Z,101482.72
2022-09-23T05:43:52.099Z,101484.47
2022-09-23T05:46:24.164Z,101492.53
2022-09-23T05:48:52.670Z,101486.19
2022-09-23T05:51:25.460Z,101481.78
2022-09-23T05:53:58.208Z,101489.78
2022-09-23T05:56:29.250Z,101493.34
2022-09-23T05:59:00.368Z,101493.34
2022-09-23T06:01:33.982Z,101490.63
2022-09-23T06:04:05.422Z,101489.69
2022-09-23T06:06:37.010Z,101487.00
2022-09-23T06:09:06.074Z,101482.47
2022-09-23T06:11:36.530Z,101486.03
2022-09-23T06:14:05.426Z,101479.69
2022-09-23T06:16:36.667Z,101484.13
2022-09-23T06:19:07.014Z,101483.19
2022-09-23T06:21:38.716Z,101484.13
2022-09-23T06:24:08.262Z,101485.00
2022-09-23T06:26:37.557Z,101486.75
2022-09-23T06:29:11.790Z,101491.25
2022-09-23T06:31:43.316Z,101489.53
2022-09-23T06:34:13.929Z,101487.78
2022-09-23T06:36:44.882Z,101486.03
2022-09-23T06:39:14.429Z,101479.78
2022-09-23T06:41:42.631Z,101479.78
2022-09-23T06:44:10.994Z,101478.91
2022-09-23T06:46:40.607Z,101487.00
2022-09-23T06:49:09.158Z,101489.69
2022-09-23T06:51:37.353Z,101487.94
2022-09-23T06:54:05.992Z,101485.16
2022-09-23T06:56:38.748Z,101483.34
2022-09-23T06:59:08.962Z,101486.75
2022-09-23T07:01:37.265Z,101487.41
2022-09-23T07:04:07.487Z,101484.22
2022-09-23T07:06:36.126Z,101489.19
2022-09-23T07:09:04.844Z,101491.41
2022-09-23T07:11:33.020Z,101500.03
2022-09-23T07:14:01.194Z,101499.81
2022-09-23T07:16:29.415Z,101503.13
2022-09-23T07:18:57.870Z,101496.56
2022-09-23T07:21:27.923Z,101498.03
2022-09-23T07:23:58.121Z,101501.19
2022-09-23T07:26:26.769Z,101499.66
2022-09-23T07:28:56.818Z,101503.84
2022-09-23T07:31:39.154Z,101502.75
2022-09-23T07:34:09.907Z,101498.06
2022-09-23T07:36:41.384Z,101502.13
2022-09-23T07:39:12.154Z,101504.47
2022-09-23T07:41:44.473Z,101505.09
2022-09-23T07:44:13.475Z,101501.59
2022-09-23T07:46:41.896Z,101491.91
2022-09-23T07:49:10.498Z,101497.53
2022-09-23T07:51:42.868Z,101489.53
2022-09-23T07:54:14.907Z,101490.72
2022-09-23T07:56:44.200Z,101489.22
2022-09-23T07:59:18.260Z,101486.81
2022-09-23T08:01:48.912Z,101483.38
2022-09-23T08:04:20.189Z,101484.53
2022-09-23T08:06:53.458Z,101482.78
2022-09-23T08:09:25.380Z,101474.03
2022-09-23T08:11:53.993Z,101482.44
2022-09-23T08:14:23.328Z,101476.13
2022-09-23T08:16:52.344Z,101472.59
2022-09-23T08:19:21.094Z,101481.06
2022-09-23T08:21:52.243Z,101476.22
2022-09-23T08:24:24.244Z,101479.56
2022-09-23T08:26:54.501Z,101478.59
2022-09-23T08:29:25.804Z,101484.78
2022-09-23T08:31:55.530Z,101465.69
2022-09-23T08:34:24.731Z,101472.44
2022-09-23T08:36:54.327Z,101470.13
2022-09-23T08:39:23.116Z,101465.25
2022-09-23T08:42:08.462Z,101467.31
2022-09-23T08:44:50.654Z,101458.88
2022-09-23T08:47:24.475Z,101461.16
2022-09-23T08:50:01.310Z,101461.81
2022-09-23T08:52:37.974Z,101461.56
2022-09-23T08:55:11.597Z,101454.59
2022-09-23T08:58:14.040Z,101450.78
2022-09-23T09:00:47.785Z,101447.09
2022-09-23T09:03:23.831Z,101443.75
2022-09-23T09:05:54.770Z,101435.69
2022-09-23T09:08:31.772Z,101435.81
2022-09-23T09:11:00.844Z,101440.16
2022-09-23T09:13:33.644Z,101436.97
2022-09-23T09:16:41.871Z,101437.06
2022-09-23T09:19:22.207Z,101440.63
2022-09-23T09:21:55.490Z,101437.34
2022-09-23T09:24:34.739Z,101434.91
2022-09-23T09:27:10.163Z,101434.13
2022-09-23T09:29:44.101Z,101430.19
2022-09-23T09:32:23.223Z,101429.97
2022-09-23T09:34:58.053Z,101430.47
2022-09-23T09:37:32.933Z,101433.25
2022-09-23T09:40:03.233Z,101432.47
2022-09-23T09:42:40.433Z,101417.28
2022-09-23T09:45:19.680Z,101418.00
2022-09-23T09:47:56.644Z,101409.72
2022-09-23T09:50:45.102Z,101411.81
2022-09-23T09:53:25.770Z,101407.72
2022-09-23T09:56:06.047Z,101406.38
2022-09-23T09:58:46.996Z,101398.78
2022-09-23T10:01:24.337Z,101400.84
2022-09-23T10:03:56.934Z,101392.44
2022-09-23T10:06:30.532Z,101387.22
2022-09-23T10:09:16.957Z,101388.56
2022-09-23T10:12:13.096Z,101384.84
2022-09-23T10:14:41.266Z,101399.16
2022-09-23T10:17:16.719Z,101393.19
2022-09-23T10:19:49.376Z,101382.56
2022-09-23T10:22:21.946Z,101393.66
2022-09-23T10:24:54.244Z,101384.03
2022-09-23T10:27:31.858Z,101391.28
2022-09-23T10:30:03.525Z,101387.03
2022-09-23T10:32:36.413Z,101381.50
2022-09-23T10:35:15.903Z,101383.47
2022-09-23T10:37:48.413Z,101386.19
2022-09-23T10:40:40.819Z,101385.97
2022-09-23T10:43:52.310Z,101374.47
2022-09-23T10:46:42.263Z,101376.59
2022-09-23T10:49:45.027Z,101378.09
2022-09-23T10:52:32.051Z,101376.09
2022-09-23T10:55:18.892Z,101368.41
2022-09-23T10:58:05.058Z,101375.06
2022-09-23T11:00:48.058Z,101370.09
2022-09-23T11:03:57.058Z,101364.38
2022-09-23T11:06:38.573Z,101372.28
2022-09-23T11:09:27.232Z,101366.09
2022-09-23T11:12:10.084Z,101360.50
2022-09-23T11:14:50.634Z,101359.00
2022-09-23T11:18:01.040Z,101350.69
2022-09-23T11:20:45.581Z,101358.50
2022-09-23T11:23:44.958Z,101351.06
2022-09-23T11:26:32.903Z,101341.72
2022-09-23T11:29:36.459Z,101349.31
2022-09-23T11:32:28.303Z,101345.25
2022-09-23T11:35:12.794Z,101335.19
2022-09-23T11:37:46.762Z,101334.38
2022-09-23T11:40:21.294Z,101335.59
2022-09-23T11:42:58.109Z,101325.88
2022-09-23T11:45:31.382Z,101327.53
2022-09-23T11:48:06.324Z,101325.13
2022-09-23T11:50:41.238Z,101321.97
2022-09-23T11:53:16.699Z,101317.69
2022-09-23T11:55:57.369Z,101318.00
2022-09-23T11:58:31.357Z,101319.84
2022-09-23T12:01:07.117Z,101328.00
2022-09-23T12:03:45.818Z,101317.06
2022-09-23T12:06:21.010Z,101317.94
2022-09-23T12:08:55.060Z,101310.91
2022-09-23T12:11:31.951Z,101312.53
2022-09-23T12:14:16.609Z,101303.53
2022-09-23T12:17:21.305Z,101307.88
2022-09-23T12:20:18.682Z,101312.34
2022-09-23T12:23:04.066Z,101299.44
2022-09-23T12:25:46.647Z,101297.44
2022-09-23T12:28:19.241Z,101299.19
2022-09-23T12:30:49.128Z,101299.59
2022-09-23T12:33:24.633Z,101290.84
2022-09-23T12:35:55.273Z,101283.06
2022-09-23T12:38:33.184Z,101284.19
2022-09-23T12:41:08.317Z,101283.31
2022-09-23T12:43:36.946Z,101284.03
2022-09-23T12:46:25.659Z,101273.38
2022-09-23T12:49:07.256Z,101268.19
2022-09-23T12:51:36.930Z,101273.25
2022-09-23T12:54:25.841Z,101275.81
2022-09-23T12:57:10.982Z,101275.72
2022-09-23T12:59:59.138Z,101272.09
2022-09-23T13:02:36.706Z,101273.69
2022-09-23T13:05:37.461Z,101267.63
2022-09-23T13:08:10.777Z,101276.13
2022-09-23T13:10:49.925Z,101267.94
2022-09-23T13:13:26.935Z,101268.09
2022-09-23T13:15:55.231Z,101257.72
2022-09-23T13:19:00.112Z,101260.00
2022-09-23T13:22:14.075Z,101249.66
2022-09-23T13:24:48.263Z,101250.22
2022-09-23T13:27:32.489Z,101249.03
2022-09-23T13:30:04.914Z,101244.00
2022-09-23T13:32:46.249Z,101244.28
2022-09-23T13:35:26.094Z,101247.00
2022-09-23T13:37:55.235Z,101249.88
2022-09-23T13:40:27.201Z,101238.22
2022-09-23T13:43:01.638Z,101239.53
2022-09-23T13:45:32.146Z,101236.34
2022-09-23T13:48:05.915Z,101232.47
2022-09-23T13:50:35.636Z,101221.22
2022-09-23T13:53:09.801Z,101227.41
2022-09-23T13:55:41.313Z,101230.53
2022-09-23T13:58:20.304Z,101230.53
2022-09-23T14:00:49.945Z,101218.59
2022-09-23T14:03:24.314Z,101217.59
2022-09-23T14:05:54.024Z,101215.00
2022-09-23T14:08:22.730Z,101205.97
2022-09-23T14:10:51.925Z,101208.97
2022-09-23T14:13:26.100Z,101211.28
2022-09-23T14:15:58.376Z,101204.34
2022-09-23T14:18:36.165Z,101206.78
2022-09-23T14:21:05.076Z,101210.78
2022-09-23T14:23:33.538Z,101204.59
2022-09-23T14:26:03.602Z,101209.50
2022-09-23T14:28:33.525Z,101205.56
2022-09-23T14:31:03.233Z,101200.66
2022-09-23T14:33:35.263Z,101202.81
2022-09-23T14:36:16.917Z,101205.69
2022-09-23T14:38:53.141Z,101198.59
2022-09-23T14:41:25.265Z,101196.16
2022-09-23T14:43:58.395Z,101199.31
2022-09-23T14:46:30.410Z,101198.44
2022-09-23T14:49:07.750Z,101186.03
2022-09-23T14:51:50.399Z,101189.06
2022-09-23T14:54:34.095Z,101190.06
2022-09-23T14:57:05.944Z,101183.75
2022-09-23T14:59:37.889Z,101185.88
2022-09-23T15:02:35.775Z,101177.97
2022-09-23T15:05:17.726Z,101182.53
2022-09-23T15:07:50.824Z,101185.41
2022-09-23T15:10:24.645Z,101184.56
2022-09-23T15:12:55.318Z,101180.09
2022-09-23T15:15:29.105Z,101180.25
2022-09-23T15:18:05.054Z,101171.31
2022-09-23T15:20:33.491Z,101173.19
2022-09-23T15:23:02.006Z,101173.06
2022-09-23T15:25:35.486Z,101176.78
2022-09-23T15:28:18.956Z,101174.19
2022-09-23T15:30:48.773Z,101176.94
2022-09-23T15:33:17.034Z,101171.63
2022-09-23T15:35:50.140Z,101169.28
2022-09-23T15:38:18.621Z,101175.28
2022-09-23T15:40:46.916Z,101167.75
2022-09-23T15:43:20.941Z,101169.47
2022-09-23T15:45:53.829Z,101166.81
2022-09-23T15:48:26.913Z,101173.91
2022-09-23T15:50:55.802Z,101168.13
2022-09-23T15:53:27.128Z,101166.78
2022-09-23T15:55:55.686Z,101171.63
2022-09-23T15:58:26.036Z,101166.44
2022-09-23T16:00:57.504Z,101165.81
2022-09-23T16:03:28.607Z,101165.09
2022-09-23T16:06:01.181Z,101165.09
2022-09-23T16:08:30.065Z,101158.91
2022-09-23T16:10:58.375Z,101164.50
2022-09-23T16:13:26.572Z,101160.06
2022-09-23T16:15:56.350Z,101161.28
2022-09-23T16:18:24.617Z,101155.25
2022-09-23T16:20:52.807Z,101150.94
2022-09-23T16:23:34.489Z,101151.44
2022-09-23T16:26:07.262Z,101152.13
2022-09-23T16:28:35.708Z,101153.47
2022-09-23T16:31:05.687Z,101159.47
2022-09-23T16:33:33.931Z,101156.50
2022-09-23T16:36:02.896Z,101156.31
2022-09-23T16:38:31.700Z,101162.25
2022-09-23T16:41:00.867Z,101153.97
2022-09-23T16:43:31.670Z,101151.91
2022-09-23T16:46:00.102Z,101145.34
2022-09-23T16:48:29.681Z,101143.34
2022-09-23T16:50:57.868Z,101144.88
2022-09-23T16:53:29.716Z,101140.91
2022-09-23T16:55:58.903Z,101139.94
2022-09-23T16:58:27.105Z,101143.16
2022-09-23T17:01:16.472Z,101143.66
2022-09-23T17:03:47.217Z,101137.97
2022-09-23T17:06:18.025Z,101146.59
2022-09-23T17:08:48.324Z,101143.53
2022-09-23T17:11:17.055Z,101144.84
2022-09-23T17:13:46.011Z,101140.91
2022-09-23T17:16:28.244Z,101139.78
2022-09-23T17:18:58.311Z,101138.56
2022-09-23T17:21:28.415Z,101138.97
2022-09-23T17:23:58.807Z,101149.47
2022-09-23T17:26:29.004Z,101149.81
2022-09-23T17:28:59.417Z,101148.47
2022-09-23T17:31:27.979Z,101147.84
2022-09-23T17:33:57.646Z,101142.75
2022-09-23T17:36:28.017Z,101142.00
2022-09-23T17:38:56.794Z,101140.38
2022-09-23T17:41:25.239Z,101139.78
2022-09-23T17:43:58.492Z,101142.56
2022-09-23T17:46:28.902Z,101130.22
2022-09-23T17:48:59.383Z,101136.75
2022-09-23T17:51:27.827Z,101142.44
2022-09-23T17:53:55.989Z,101142.66
2022-09-23T17:56:26.284Z,101134.00
2022-09-23T17:58:55.322Z,101137.09
2022-09-23T18:01:25.562Z,101136.66
2022-09-23T18:03:55.936Z,101138.88
2022-09-23T18:06:31.543Z,101143.88
2022-09-23T18:09:03.856Z,101132.53
2022-09-23T18:11:35.215Z,101144.59
2022-09-23T18:14:06.645Z,101138.63
2022-09-23T18:16:38.223Z,101130.97
2022-09-23T18:19:08.704Z,101138.44
2022-09-23T18:21:41.116Z,101135.97
2022-09-23T18:26:59.738Z,101139.34
2022-09-23T18:29:28.110Z,101135.22
2022-09-23T18:31:56.732Z,101139.25
2022-09-23T18:34:25.301Z,101134.16
2022-09-23T18:36:56.160Z,101132.78
2022-09-23T18:39:24.463Z,101137.63
2022-09-23T18:41:52.664Z,101133.53
2022-09-23T18:44:20.886Z,101139.31
2022-09-23T18:46:49.087Z,101135.28
2022-09-23T18:49:34.550Z,101137.56
2022-09-23T18:52:04.274Z,101142.56
2022-09-23T18:54:32.452Z,101143.00
2022-09-23T18:57:01.285Z,101143.44
2022-09-23T18:59:31.746Z,101140.22
2022-09-23T19:02:00.197Z,101142.34
2022-09-23T19:04:29.054Z,101139.13
2022-09-23T19:06:57.899Z,101138.44
2022-09-23T19:09:27.628Z,101138.66
2022-09-23T19:11:55.787Z,101144.41
2022-09-23T19:14:23.958Z,101139.31
2022-09-23T19:16:52.134Z,101142.34
2022-09-23T19:19:20.443Z,101131.72
2022-09-23T19:21:48.611Z,101137.47
2022-09-23T19:24:19.982Z,101137.66
2022-09-23T19:26:50.402Z,101135.16
2022-09-23T19:29:21.696Z,101134.53
2022-09-23T19:31:50.967Z,101129.31
2022-09-23T19:34:23.761Z,101129.50
2022-09-23T19:36:52.769Z,101128.94
2022-09-23T19:39:23.349Z,101128.19
2022-09-23T19:41:55.832Z,101129.25
2022-09-23T19:44:25.170Z,101124.03
2022-09-23T19:46:56.658Z,101129.66
2022-09-23T19:49:25.944Z,101138.09
2022-09-23T19:51:55.803Z,101134.72
2022-09-23T19:54:27.110Z,101133.31
2022-09-23T19:56:56.851Z,101130.91
2022-09-23T19:59:26.236Z,101121.34
2022-09-23T20:01:54.800Z,101128.16
2022-09-23T20:04:23.422Z,101128.44
2022-09-23T20:06:51.615Z,101124.31
2022-09-23T20:09:20.011Z,101122.97
2022-09-23T20:11:48.255Z,101131.50
2022-09-23T20:14:19.793Z,101129.19
2022-09-23T20:16:48.351Z,101126.03
2022-09-23T20:19:16.674Z,101115.59
2022-09-23T20:21:44.874Z,101116.13
2022-09-23T20:24:13.142Z,101122.66
2022-09-23T20:26:58.899Z,101112.38
2022-09-23T20:29:28.818Z,101109.19
2022-09-23T20:31:59.196Z,101114.03
2022-09-23T20:34:29.852Z,101109.84
2022-09-23T20:36:59.235Z,101114.59
2022-09-23T20:39:28.065Z,101112.19
2022-09-23T20:41:56.310Z,101111.53
2022-09-23T20:44:24.485Z,101110.03
2022-09-23T20:46:54.061Z,101104.84
2022-09-23T20:49:22.670Z,101111.31
2022-09-23T20:51:51.450Z,101106.06
2022-09-23T20:54:20.014Z,101105.31
2022-09-23T20:56:48.541Z,101106.38
2022-09-23T20:59:17.966Z,101106.56
2022-09-23T21:01:47.606Z,101103.09
2022-09-23T21:04:17.825Z,101101.44
2022-09-23T21:06:46.421Z,101104.31
2022-09-23T21:09:14.607Z,101101.81
2022-09-23T21:11:42.986Z,101095.66
2022-09-23T21:14:11.455Z,101094.88
2022-09-23T21:16:39.784Z,101092.28
2022-09-23T21:19:08.504Z,101096.88
2022-09-23T21:21:38.101Z,101091.69
2022-09-23T21:24:37.800Z,101089.09
2022-09-23T21:26:55.130Z,101098.25
2022-09-23T21:29:23.363Z,101090.25
2022-09-23T21:31:51.542Z,101091.22
2022-09-23T21:34:19.885Z,101091.38
2022-09-23T21:36:49.635Z,101096.78
2022-09-23T21:39:17.801Z,101085.19
2022-09-23T21:41:45.992Z,101101.50
2022-09-23T21:44:14.375Z,101094.38
2022-09-23T21:46:42.640Z,101093.50
2022-09-23T21:49:10.857Z,101083.88
2022-09-23T21:51:41.641Z,101086.66
2022-09-23T21:54:15.544Z,101089.50
2022-09-23T21:56:45.107Z,101087.78
2022-09-23T21:59:13.583Z,101091.44
2022-09-23T22:01:44.936Z,101100.50
2022-09-23T22:04:17.006Z,101087.09
2022-09-23T22:06:46.656Z,101091.72
2022-09-23T22:09:19.153Z,101096.25
2022-09-23T22:12:08.982Z,101082.00
2022-09-23T22:14:38.876Z,101083.84
2022-09-23T22:17:10.861Z,101092.84
2022-09-23T22:19:44.143Z,101083.91
2022-09-23T22:22:17.640Z,101090.25
2022-09-23T22:24:48.460Z,101083.13
2022-09-23T22:27:19.257Z,101087.66
2022-09-23T22:30:05.339Z,101078.78
2022-09-23T22:32:43.362Z,101085.16
2022-09-23T22:35:16.477Z,101070.88
2022-09-23T22:37:45.319Z,101077.25
2022-09-23T22:40:16.708Z,101082.81
2022-09-23T22:42:45.801Z,101074.81
2022-09-23T22:45:14.622Z,101071.25
2022-09-23T22:47:45.390Z,101076.06
2022-09-23T22:50:15.420Z,101075.28
2022-09-23T22:52:43.797Z,101076.25
2022-09-23T22:55:12.490Z,101079.09
2022-09-23T22:57:42.164Z,101072.06
2022-09-23T23:00:12.686Z,101069.47
2022-09-23T23:02:42.341Z,101066.84
2022-09-23T23:05:10.982Z,101072.34
2022-09-23T23:07:39.219Z,101064.44
2022-09-23T23:10:10.073Z,101066.34
2022-09-23T23:12:40.134Z,101068.25
2022-09-23T23:15:12.412Z,101065.75
2022-09-23T23:17:43.498Z,101050.63
2022-09-23T23:20:12.052Z,101060.66
2022-09-23T23:22:40.257Z,101056.31
2022-09-23T23:25:09.691Z,101067.16
2022-09-23T23:27:37.959Z,101054.72
2022-09-23T23:30:08.297Z,101053.94
2022-09-23T23:32:37.869Z,101054.13
2022-09-23T23:35:07.235Z,101048.84
2022-09-23T23:37:35.414Z,101048.94
2022-09-23T23:40:03.875Z,101050.75
2022-09-23T23:42:32.867Z,101053.53
2022-09-23T23:45:01.327Z,101050.06
2022-09-23T23:47:29.506Z,101047.44
2022-09-23T23:49:59.366Z,101059.19
2022-09-23T23:52:27.546Z,101048.41
2022-09-23T23:54:55.937Z,101053.03
2022-09-23T23:57:24.111Z,101057.53
2022-09-23T23:59:52.275Z,101052.25
